Terminal Aerodrome Forecast
Issued by NWS Wilmington, OH

Current Version | Previous Version | Text Only | Print | Product List | Glossary Off
Versions: 1 2 3 4 5 6 7 8 9 10 11 12 13 14 15 16 17 18 19 20 21 22 23 24 25

151
FTUS41 KILN 242221 AAB
TAFILN
TAF AMD
KILN 242221Z 2422/2518 19012G22KT P6SM BKN060
     FM250200 20014G22KT 6SM -SHRA VCTS OVC040CB
      TEMPO 2502/2505 4SM TSRA OVC025CB
     FM250700 27015G25KT P6SM VCSH BKN045
     FM250900 27015G25KT P6SM BKN045
     FM251300 25016G26KT P6SM OVC025=

USA.gov is the U.S. government's official web portal to all federal, state and local government web resources and services.